Time;durP1;ratioP1;P1;durP2;ratioP2;P2;SDS_P1;SDS_P2;PMS_P1;PMS_P2;Temp;Humidity;BMP_temperature;BMP_pressure;BME280_temperature;BME280_humidity;BME280_pressure;Samples;Min_cycle;Max_cycle;Signal;HPM_P1;HPM_P2
2022/03/14 00:01:34;;;;;;;;;10.33;6.33;;;;;24.57;28.93;101368.78;5077401;27;45488;-77
2022/03/14 00:03:59;;;;;;;;;4.00;4.00;;;;;24.79;28.77;101390.75;5095994;27;45360;-77
2022/03/14 00:06:26;;;;;;;;;6.00;6.00;;;;;23.87;29.83;101379.78;5095811;27;45461;-77
2022/03/14 00:08:55;;;;;;;;;4.33;4.33;;;;;24.45;29.36;101378.16;5095869;27;45457;-77
2022/03/14 00:11:22;;;;;;;;;6.33;3.00;;;;;24.84;28.46;101390.63;5095706;27;45268;-77
2022/03/14 00:13:48;;;;;;;;;6.33;4.67;;;;;24.93;28.55;101414.75;5095507;27;45352;-76
2022/03/14 00:16:20;;;;;;;;;3.67;3.67;;;;;24.61;28.71;101394.94;5095537;27;45280;-77
2022/03/14 00:18:51;;;;;;;;;3.00;3.00;;;;;24.76;28.81;101417.97;5095631;27;45376;-77
2022/03/14 00:21:23;;;;;;;;;6.33;4.00;;;;;24.07;29.04;101392.81;5095847;27;45425;-77
2022/03/14 00:23:53;;;;;;;;;5.33;5.33;;;;;24.12;29.60;101427.00;5095210;27;45377;-77
2022/03/14 00:26:19;;;;;;;;;4.00;4.00;;;;;24.24;29.73;101439.31;5095007;27;45399;-77
2022/03/14 00:28:45;;;;;;;;;5.33;3.67;;;;;24.32;29.50;101441.84;5095265;27;45424;-77
2022/03/14 00:31:11;;;;;;;;;5.33;5.33;;;;;24.47;28.92;101432.34;5077339;27;45516;-77
2022/03/14 00:33:39;;;;;;;;;6.67;6.00;;;;;24.51;29.14;101431.34;5057999;28;47215;-77
2022/03/14 00:36:05;;;;;;;;;4.00;4.00;;;;;23.89;29.61;101429.41;5078486;28;45440;-77
2022/03/14 00:38:31;;;;;;;;;8.00;4.67;;;;;24.19;29.67;101452.13;5077317;28;45406;-77
2022/03/14 00:40:57;;;;;;;;;4.00;4.00;;;;;23.95;29.93;101441.00;5078225;28;45589;-77
2022/03/14 00:43:22;;;;;;;;;4.00;3.00;;;;;23.93;29.55;101413.03;5077992;28;45631;-77
2022/03/14 00:45:47;;;;;;;;;5.33;4.00;;;;;23.75;30.15;101473.97;5077998;28;45509;-77
2022/03/14 00:48:13;;;;;;;;;4.00;4.00;;;;;23.89;29.89;101487.19;5078428;28;45316;-77
2022/03/14 00:50:38;;;;;;;;;4.00;4.00;;;;;23.90;29.46;101478.16;5057759;28;45897;-76
2022/03/14 00:53:03;;;;;;;;;3.67;3.67;;;;;23.81;29.57;101468.41;5078048;28;45355;-77
2022/03/14 00:55:28;;;;;;;;;4.00;4.00;;;;;24.28;29.33;101481.69;5077497;28;45458;-77
2022/03/14 00:57:54;;;;;;;;;7.00;4.00;;;;;24.38;28.89;101484.16;5077937;28;45385;-77
2022/03/14 01:00:19;;;;;;;;;3.00;3.00;;;;;24.44;28.78;101484.91;5078369;28;45391;-76
2022/03/14 01:02:50;;;;;;;;;4.00;4.00;;;;;24.37;28.86;101494.09;5059449;28;48107;-77
2022/03/14 01:05:19;;;;;;;;;6.67;4.00;;;;;24.63;28.67;101508.84;5078147;28;45496;-77
2022/03/14 01:07:45;;;;;;;;;7.33;6.00;;;;;23.95;29.13;101521.38;5078096;28;45343;-77
2022/03/14 01:10:10;;;;;;;;;6.67;4.00;;;;;24.17;28.98;101524.47;5077809;28;45433;-76
2022/03/14 01:12:35;;;;;;;;;6.00;3.00;;;;;24.24;28.73;101519.78;5059516;28;46247;-77
2022/03/14 01:15:01;;;;;;;;;3.00;3.00;;;;;24.30;29.33;101514.19;5078164;28;45476;-77
2022/03/14 01:17:27;;;;;;;;;4.00;3.00;;;;;24.48;28.95;101539.94;5077843;28;45419;-76
2022/03/14 01:19:53;;;;;;;;;2.00;2.00;;;;;24.44;28.65;101541.84;5077857;28;45881;-76
2022/03/14 01:22:18;;;;;;;;;6.67;3.00;;;;;24.20;28.98;101524.38;5059609;28;46979;-77
2022/03/14 01:24:43;;;;;;;;;9.33;5.33;;;;;23.92;29.56;101546.78;5059060;28;45369;-77
2022/03/14 01:27:09;;;;;;;;;4.67;3.33;;;;;24.02;29.39;101536.59;5078059;28;45468;-77
2022/03/14 01:29:35;;;;;;;;;3.00;3.00;;;;;24.54;28.71;101566.00;5077888;28;45633;-77
2022/03/14 01:32:02;;;;;;;;;7.67;4.00;;;;;24.53;28.62;101540.72;5083272;27;45496;-77
2022/03/14 01:34:28;;;;;;;;;7.67;5.33;;;;;24.55;28.75;101541.53;5098278;27;45441;-77
2022/03/14 01:36:53;;;;;;;;;3.67;3.00;;;;;24.64;28.12;101540.44;5098119;27;45458;-77
2022/03/14 01:39:18;;;;;;;;;4.00;4.00;;;;;24.53;28.63;101548.84;5097879;27;45557;-77
2022/03/14 01:41:44;;;;;;;;;4.00;4.00;;;;;24.75;28.45;101568.19;5098015;27;45374;-77
2022/03/14 01:44:09;;;;;;;;;6.00;3.00;;;;;24.86;28.19;101584.16;5098110;27;45394;-76
2022/03/14 01:46:35;;;;;;;;;4.00;4.00;;;;;24.70;28.33;101556.56;5097315;27;45378;-76
2022/03/14 01:49:00;;;;;;;;;6.00;3.67;;;;;24.89;28.09;101581.34;5098318;27;45287;-77
2022/03/14 01:51:26;;;;;;;;;4.00;4.00;;;;;24.44;28.43;101562.63;5097776;27;46344;-76
2022/03/14 01:53:53;;;;;;;;;5.33;3.00;;;;;24.48;28.90;101578.78;5097570;27;45498;-77
2022/03/14 01:56:19;;;;;;;;;4.00;4.00;;;;;24.66;28.52;101563.88;5098131;27;45370;-77
2022/03/14 01:58:46;;;;;;;;;6.67;3.33;;;;;24.89;27.52;101578.63;5097602;27;45453;-77
2022/03/14 02:01:12;;;;;;;;;4.33;4.33;;;;;24.46;28.11;101564.38;5096325;27;46519;-76
2022/03/14 02:03:38;;;;;;;;;4.00;3.00;;;;;24.57;28.20;101555.97;5097744;27;45449;-77
2022/03/14 02:06:03;;;;;;;;;5.33;3.00;;;;;24.67;27.96;101589.22;5095931;27;45768;-78
2022/03/14 02:08:29;;;;;;;;;6.00;3.00;;;;;24.40;28.34;101580.84;5097997;27;45568;-78
2022/03/14 02:10:54;;;;;;;;;3.00;2.00;;;;;24.43;28.20;101566.28;5083576;27;46259;-79
2022/03/14 02:13:19;;;;;;;;;4.00;4.00;;;;;24.87;28.06;101594.09;5077193;28;45507;-78
2022/03/14 02:15:46;;;;;;;;;4.67;3.00;;;;;24.86;27.76;101586.88;5076983;28;45372;-78
2022/03/14 02:18:11;;;;;;;;;2.00;2.00;;;;;24.72;27.98;101581.81;5077293;28;45419;-79
2022/03/14 02:20:37;;;;;;;;;3.00;2.67;;;;;24.68;27.83;101579.25;5058333;28;48093;-78
2022/03/14 02:23:02;;;;;;;;;3.67;3.67;;;;;24.66;28.19;101561.16;5077059;28;45202;-78
2022/03/14 02:25:28;;;;;;;;;6.33;3.00;;;;;24.65;27.75;101578.41;5075773;28;45492;-78
2022/03/14 02:27:53;;;;;;;;;3.33;3.33;;;;;24.39;27.95;101561.88;5076764;28;45252;-78
2022/03/14 02:30:18;;;;;;;;;3.33;3.33;;;;;24.58;28.07;101601.13;5075708;28;48049;-78
2022/03/14 02:32:45;;;;;;;;;3.67;3.33;;;;;24.60;27.99;101596.63;5076968;28;45359;-78
2022/03/14 02:35:12;;;;;;;;;8.67;5.00;;;;;24.72;27.61;101608.94;5075286;28;45382;-78
2022/03/14 02:37:38;;;;;;;;;7.67;2.67;;;;;24.64;28.28;101601.03;5076862;28;45421;-78
2022/03/14 02:40:05;;;;;;;;;3.00;2.00;;;;;24.47;27.93;101578.84;5076387;28;45354;-78
2022/03/14 02:42:30;;;;;;;;;6.00;3.67;;;;;24.56;28.03;101603.03;5076683;28;45457;-78
2022/03/14 02:44:55;;;;;;;;;3.00;3.00;;;;;24.42;28.33;101578.09;5076592;28;45182;-78
2022/03/14 02:47:21;;;;;;;;;4.00;2.67;;;;;24.30;28.00;101569.31;5076663;28;45438;-78
2022/03/14 02:49:46;;;;;;;;;3.00;3.00;;;;;24.61;27.69;101611.06;5076238;28;45423;-78
2022/03/14 02:52:11;;;;;;;;;3.00;3.00;;;;;24.37;28.04;101610.72;5075174;28;45362;-78
2022/03/14 02:54:37;;;;;;;;;6.33;3.67;;;;;24.56;28.23;101623.84;5075396;28;45668;-78
2022/03/14 02:57:04;;;;;;;;;3.33;3.33;;;;;24.49;28.25;101631.22;5076279;28;45552;-78
2022/03/14 02:59:29;;;;;;;;;4.00;3.00;;;;;24.32;28.14;101626.25;5057411;28;47240;-78
2022/03/14 03:01:54;;;;;;;;;2.00;2.00;;;;;24.32;28.03;101634.38;5057847;28;45560;-78
2022/03/14 03:04:20;;;;;;;;;4.00;3.00;;;;;24.15;28.09;101619.38;5057971;28;45397;-78
2022/03/14 03:06:45;;;;;;;;;6.33;2.67;;;;;24.14;28.16;101646.53;5076237;28;45688;-79
2022/03/14 03:09:11;;;;;;;;;3.33;3.00;;;;;23.84;28.94;101662.56;5076297;28;46097;-78
2022/03/14 03:11:36;;;;;;;;;3.00;3.00;;;;;23.86;28.45;101649.84;5096019;27;45394;-78
2022/03/14 03:14:03;;;;;;;;;4.00;3.33;;;;;23.87;28.68;101667.00;5096654;27;45559;-78
2022/03/14 03:16:29;;;;;;;;;2.33;2.00;;;;;23.95;28.72;101662.31;5096826;27;45517;-78
2022/03/14 03:18:55;;;;;;;;;3.00;3.00;;;;;23.77;28.83;101688.00;5095977;27;45472;-78
2022/03/14 03:21:21;;;;;;;;;2.00;2.00;;;;;23.86;28.66;101666.09;5096672;27;45310;-78
2022/03/14 03:23:47;;;;;;;;;3.67;3.00;;;;;24.06;28.63;101678.34;5088459;27;45418;-79
2022/03/14 03:26:12;;;;;;;;;6.00;3.33;;;;;24.03;28.02;101697.41;5092030;27;45393;-79
2022/03/14 03:28:37;;;;;;;;;4.00;3.00;;;;;23.77;28.82;101706.97;5083085;27;47225;-77
2022/03/14 03:31:08;;;;;;;;;2.00;2.00;;;;;23.80;28.79;101693.34;5075586;27;47430;-77
2022/03/14 03:33:34;;;;;;;;;7.00;6.00;;;;;23.88;28.65;101702.25;5095329;27;45675;-76
2022/03/14 03:36:00;;;;;;;;;2.00;2.00;;;;;23.79;28.27;101702.38;5094841;27;45502;-77
2022/03/14 03:38:26;;;;;;;;;5.67;3.00;;;;;23.51;28.79;101708.38;5094225;27;47039;-76
2022/03/14 03:40:52;;;;;;;;;3.00;3.00;;;;;23.62;28.52;101719.00;5094298;27;45637;-76
2022/03/14 03:43:17;;;;;;;;;5.33;2.67;;;;;23.63;28.57;101704.53;5094295;27;45331;-77
2022/03/14 03:45:43;;;;;;;;;3.00;2.00;;;;;23.84;28.31;101734.81;5094521;27;45362;-76
2022/03/14 03:48:08;;;;;;;;;6.00;4.00;;;;;23.72;28.52;101714.28;5095066;27;45759;-77
2022/03/14 03:50:34;;;;;;;;;6.67;3.00;;;;;23.76;28.60;101734.97;5095119;27;45761;-77
2022/03/14 03:52:59;;;;;;;;;5.00;2.67;;;;;23.70;28.04;101721.53;5076595;27;45409;-76
2022/03/14 03:55:24;;;;;;;;;3.67;3.00;;;;;23.71;28.36;101723.34;5076774;27;45722;-77
2022/03/14 03:57:50;;;;;;;;;4.00;2.00;;;;;23.70;28.16;101721.53;5094920;27;45466;-77
2022/03/14 04:00:16;;;;;;;;;3.00;3.00;;;;;23.63;28.10;101743.34;5092229;27;45733;-77
2022/03/14 04:02:44;;;;;;;;;4.00;4.00;;;;;23.92;27.86;101755.47;5056654;28;45445;-77
2022/03/14 04:05:11;;;;;;;;;4.00;3.33;;;;;23.67;28.26;101759.53;5057216;28;45551;-77
2022/03/14 04:07:36;;;;;;;;;2.33;2.33;;;;;23.71;28.22;101755.84;5075357;28;46177;-76
2022/03/14 04:10:03;;;;;;;;;4.67;4.00;;;;;23.37;28.45;101751.97;5077039;28;45334;-77
2022/03/14 04:12:29;;;;;;;;;3.00;3.00;;;;;23.61;28.33;101787.63;5079167;28;45495;-76
2022/03/14 04:14:58;;;;;;;;;5.33;3.00;;;;;23.77;28.23;101786.44;5078839;28;45351;-77
2022/03/14 04:17:28;;;;;;;;;3.67;2.67;;;;;23.53;28.43;101782.38;5078554;28;46238;-77
2022/03/14 04:19:54;;;;;;;;;5.33;3.67;;;;;22.80;29.29;101774.56;5078540;28;45291;-77
2022/03/14 04:22:20;;;;;;;;;3.33;3.00;;;;;22.90;29.11;101732.91;5079044;28;45303;-77
2022/03/14 04:24:45;;;;;;;;;3.00;3.00;;;;;23.52;28.12;101786.00;5078928;28;45411;-76
2022/03/14 04:27:11;;;;;;;;;3.00;3.00;;;;;23.67;27.87;101763.16;5078669;28;45666;-76
2022/03/14 04:29:36;;;;;;;;;4.00;4.00;;;;;23.52;27.73;101737.25;5078870;28;45432;-77
2022/03/14 04:32:02;;;;;;;;;4.67;3.00;;;;;23.63;27.84;101767.72;5060144;28;45437;-77
2022/03/14 04:34:28;;;;;;;;;4.67;3.00;;;;;23.88;27.72;101797.09;5077528;28;45489;-77
2022/03/14 04:36:53;;;;;;;;;7.00;6.00;;;;;23.96;27.48;101805.94;5078486;28;46167;-76
2022/03/14 04:39:20;;;;;;;;;3.67;3.67;;;;;23.83;27.85;101796.25;5060181;28;45555;-77
2022/03/14 04:41:46;;;;;;;;;3.33;3.33;;;;;23.81;27.52;101812.53;5077431;28;45351;-77
2022/03/14 04:44:11;;;;;;;;;3.00;2.00;;;;;23.55;28.11;101804.91;5078466;28;45598;-76
2022/03/14 04:46:37;;;;;;;;;3.00;3.00;;;;;23.61;27.90;101821.06;5077999;28;45479;-77
2022/03/14 04:49:08;;;;;;;;;4.00;4.00;;;;;23.67;27.81;101808.31;5059920;28;45541;-77
2022/03/14 04:51:34;;;;;;;;;6.00;4.00;;;;;23.71;27.93;101820.88;5078651;28;45451;-77
2022/03/14 04:53:59;;;;;;;;;5.33;2.67;;;;;23.61;27.70;101802.09;5078363;28;45493;-76
2022/03/14 04:56:25;;;;;;;;;6.00;4.00;;;;;23.66;28.24;101834.50;5059753;28;47492;-77
2022/03/14 04:58:51;;;;;;;;;6.67;3.00;;;;;23.11;28.48;101822.78;5077990;28;45422;-76
2022/03/14 05:01:20;;;;;;;;;7.00;3.00;;;;;23.26;28.99;101844.22;5077951;28;45237;-77
2022/03/14 05:03:45;;;;;;;;;3.67;3.00;;;;;23.06;28.57;101830.97;5078478;28;45763;-76
2022/03/14 05:06:11;;;;;;;;;4.33;4.33;;;;;23.52;28.24;101842.00;5059655;28;46400;-77
2022/03/14 05:08:36;;;;;;;;;6.33;4.00;;;;;23.57;27.88;101840.09;5078059;28;45535;-76
2022/03/14 05:11:04;;;;;;;;;8.33;6.00;;;;;23.67;27.60;101849.84;5088482;27;45500;-77
2022/03/14 05:13:29;;;;;;;;;6.67;3.33;;;;;23.48;27.86;101849.28;5098746;27;45423;-77
2022/03/14 05:15:55;;;;;;;;;4.00;4.00;;;;;23.49;28.11;101848.34;5097773;27;46250;-76
2022/03/14 05:18:20;;;;;;;;;4.00;4.00;;;;;23.52;27.77;101840.19;5098327;27;45407;-77
2022/03/14 05:20:47;;;;;;;;;5.33;5.33;;;;;23.39;27.97;101833.16;5097639;27;45350;-76
2022/03/14 05:23:12;;;;;;;;;3.00;3.00;;;;;23.46;27.36;101810.50;5079657;27;45478;-77
2022/03/14 05:25:37;;;;;;;;;6.67;3.33;;;;;23.60;27.78;101857.19;5098375;27;45372;-77
2022/03/14 05:28:03;;;;;;;;;6.00;2.00;;;;;23.65;27.49;101857.09;5098242;27;45299;-76
2022/03/14 05:30:28;;;;;;;;;4.33;3.00;;;;;23.49;27.64;101848.34;5098088;27;45342;-76
2022/03/14 05:32:54;;;;;;;;;3.33;3.33;;;;;23.77;27.55;101878.56;5095116;27;45423;-76
2022/03/14 05:35:19;;;;;;;;;8.00;7.00;;;;;23.59;27.72;101874.34;5097715;27;45421;-77
2022/03/14 05:37:46;;;;;;;;;8.00;6.00;;;;;23.68;27.39;101876.00;5097501;27;45447;-77
2022/03/14 05:40:15;;;;;;;;;2.00;2.00;;;;;23.36;27.92;101868.44;5098105;27;45539;-77
2022/03/14 05:42:41;;;;;;;;;4.33;4.33;;;;;23.58;27.57;101874.38;5097990;27;45449;-77
2022/03/14 05:45:08;;;;;;;;;6.00;3.33;;;;;23.54;27.42;101887.06;5097114;27;45424;-77
2022/03/14 05:47:34;;;;;;;;;6.00;3.33;;;;;23.49;27.92;101879.94;5097481;27;45329;-77
2022/03/14 05:50:00;;;;;;;;;6.00;4.33;;;;;23.56;27.25;101896.09;5102943;27;45540;-77
2022/03/14 05:52:26;;;;;;;;;3.67;3.67;;;;;23.68;27.37;101894.97;5084840;27;45435;-77
2022/03/14 05:54:52;;;;;;;;;6.00;4.33;;;;;23.37;27.96;101886.47;5097636;27;45417;-77
2022/03/14 05:57:17;;;;;;;;;7.67;4.33;;;;;23.38;27.78;101893.69;5096877;27;45390;-77
2022/03/14 05:59:43;;;;;;;;;4.33;4.33;;;;;23.41;27.79;101902.63;5096802;27;46130;-77
2022/03/14 06:02:09;;;;;;;;;4.00;4.00;;;;;23.48;27.92;101914.28;5096278;27;45466;-76
2022/03/14 06:04:34;;;;;;;;;4.00;4.00;;;;;23.31;27.89;101913.66;5096519;27;46273;-76
2022/03/14 06:07:00;;;;;;;;;6.33;6.00;;;;;23.03;28.07;101889.69;5083522;27;45398;-75
2022/03/14 06:09:25;;;;;;;;;4.67;3.00;;;;;23.30;27.90;101926.28;5080292;27;46593;-76
2022/03/14 06:11:51;;;;;;;;;8.00;6.33;;;;;23.36;27.87;101930.72;5092862;27;45475;-76
2022/03/14 06:14:17;;;;;;;;;1.00;0.00;;;;;23.45;27.79;101936.00;5096277;27;45469;-76
2022/03/14 06:16:43;;;;;;;;;6.67;6.00;;;;;23.32;27.61;101935.31;5095870;27;45591;-76
2022/03/14 06:19:09;;;;;;;;;5.33;3.00;;;;;23.27;27.78;101929.06;5076323;27;45412;-76
2022/03/14 06:21:34;;;;;;;;;5.33;5.33;;;;;23.57;27.25;101924.97;5078226;27;45539;-76
2022/03/14 06:24:00;;;;;;;;;10.00;9.00;;;;;23.89;27.31;101914.50;5077567;27;47042;-77
2022/03/14 06:26:26;;;;;;;;;7.00;6.00;;;;;24.27;26.69;101921.91;5095944;27;45596;-77
2022/03/14 06:28:51;;;;;;;;;4.67;4.00;;;;;24.42;25.98;101937.00;5076738;27;45537;-76
2022/03/14 06:31:17;;;;;;;;;7.00;7.00;;;;;24.54;26.40;101948.53;5089551;27;45535;-76
2022/03/14 06:33:42;;;;;;;;;7.00;6.00;;;;;24.63;26.17;101934.81;5093324;27;46352;-76
2022/03/14 06:36:07;;;;;;;;;5.67;4.00;;;;;24.47;25.89;101947.75;5096917;27;45504;-76
2022/03/14 06:38:33;;;;;;;;;8.33;7.00;;;;;24.32;26.58;101957.97;5092947;27;45390;-75
2022/03/14 06:40:59;;;;;;;;;6.00;6.00;;;;;24.22;26.43;101960.88;5092238;27;45584;-75
2022/03/14 06:43:24;;;;;;;;;7.33;7.00;;;;;24.01;26.92;101971.22;5075802;28;46080;-76
2022/03/14 06:45:50;;;;;;;;;10.67;7.67;;;;;23.82;26.95;101984.16;5092168;27;45388;-76
2022/03/14 06:48:16;;;;;;;;;6.00;6.00;;;;;23.55;27.01;101977.38;5091176;27;45444;-76
2022/03/14 06:50:41;;;;;;;;;6.67;6.67;;;;;23.26;27.88;101976.91;5078106;27;45313;-76
2022/03/14 06:53:07;;;;;;;;;8.00;7.00;;;;;23.31;27.92;102005.72;5078261;27;47994;-77
2022/03/14 06:55:33;;;;;;;;;6.00;6.00;;;;;23.28;28.24;102012.09;5096004;27;45470;-83
2022/03/14 06:57:59;;;;;;;;;8.67;6.00;;;;;23.01;27.66;101942.91;5096883;27;45292;-80
2022/03/14 07:00:26;;;;;;;;;11.67;8.00;;;;;23.61;27.71;102021.53;5096769;27;45300;-78
2022/03/14 07:02:52;;;;;;;;;12.00;9.00;;;;;23.49;27.47;101981.09;5096836;27;46582;-79
2022/03/14 07:05:20;;;;;;;;;8.00;8.00;;;;;23.34;27.52;102008.38;5096465;27;45551;-79
2022/03/14 07:07:46;;;;;;;;;8.33;7.00;;;;;23.48;28.02;102032.56;5078371;27;45426;-78
2022/03/14 07:10:13;;;;;;;;;9.67;7.00;;;;;22.97;28.15;101988.09;5095583;27;45208;-79
2022/03/14 07:12:45;;;;;;;;;11.33;6.33;;;;;23.25;27.78;102006.72;5096028;27;45428;-79
2022/03/14 07:15:16;;;;;;;;;6.33;6.33;;;;;23.52;27.51;102027.06;5096063;27;45503;-78
2022/03/14 07:17:42;;;;;;;;;9.00;8.00;;;;;23.56;27.62;102025.22;5094910;27;45400;-80
2022/03/14 07:20:09;;;;;;;;;10.67;8.00;;;;;23.32;27.43;101984.03;5095845;27;45591;-79
2022/03/14 07:22:48;;;;;;;;;6.33;6.33;;;;;23.55;27.82;102067.66;5095733;27;46200;-80
2022/03/14 07:25:13;;;;;;;;;8.33;7.67;;;;;23.25;27.98;102047.34;5094479;27;45477;-79
2022/03/14 07:27:38;;;;;;;;;6.00;6.00;;;;;23.23;28.09;102032.91;5095963;27;45426;-80
2022/03/14 07:30:04;;;;;;;;;5.67;3.33;;;;;23.09;28.11;102019.50;5094671;27;45895;-79
2022/03/14 07:32:29;;;;;;;;;4.33;4.33;;;;;23.31;28.05;102030.09;5095967;27;45411;-80
2022/03/14 07:34:57;;;;;;;;;8.33;8.33;;;;;23.84;27.69;102069.06;5094649;27;45327;-79
2022/03/14 07:37:25;;;;;;;;;6.00;6.00;;;;;23.62;27.40;102004.34;5075292;28;45527;-81
2022/03/14 07:39:51;;;;;;;;;7.67;7.67;;;;;23.80;27.14;102035.66;5084001;27;45177;-79
2022/03/14 07:42:16;;;;;;;;;8.33;7.00;;;;;23.83;27.00;102056.41;5075266;27;45395;-80
2022/03/14 07:44:42;;;;;;;;;7.67;7.33;;;;;23.58;27.49;102059.47;5078353;27;45470;-79
2022/03/14 07:47:10;;;;;;;;;6.67;6.33;;;;;23.70;27.08;102050.28;5057299;28;45359;-80
2022/03/14 07:49:36;;;;;;;;;6.33;5.33;;;;;23.93;27.10;102090.59;5075550;27;45335;-80
2022/03/14 07:52:02;;;;;;;;;6.67;5.33;;;;;23.97;27.29;102122.16;5074958;28;45702;-78
2022/03/14 07:54:27;;;;;;;;;7.33;7.00;;;;;23.67;27.51;102093.69;5075004;28;45437;-79
2022/03/14 07:56:53;;;;;;;;;8.33;8.00;;;;;23.53;27.44;102074.91;5075762;28;45438;-79
2022/03/14 07:59:18;;;;;;;;;6.00;6.00;;;;;23.85;27.52;102146.69;5086337;27;45524;-80
2022/03/14 08:01:44;;;;;;;;;7.67;7.67;;;;;23.83;27.45;102143.13;5095262;27;46145;-80
2022/03/14 08:04:09;;;;;;;;;7.00;7.00;;;;;23.73;27.66;102115.28;5095563;27;45543;-80
2022/03/14 08:06:42;;;;;;;;;6.67;6.67;;;;;23.61;27.32;102089.25;5095613;27;45618;-80
2022/03/14 08:09:08;;;;;;;;;12.00;7.00;;;;;24.19;27.36;102151.69;5095892;27;45341;-80
2022/03/14 08:11:35;;;;;;;;;9.33;9.33;;;;;23.93;27.46;102143.94;5085426;27;48177;-80
2022/03/14 08:14:02;;;;;;;;;8.00;8.00;;;;;24.14;27.25;102146.31;5116288;27;45603;-78
2022/03/14 08:16:27;;;;;;;;;9.00;7.67;;;;;24.10;27.29;102138.25;5091740;27;45327;-79
2022/03/14 08:18:53;;;;;;;;;9.67;7.33;;;;;24.12;27.63;102128.25;5078104;27;45440;-80
2022/03/14 08:21:18;;;;;;;;;10.33;8.67;;;;;24.04;26.98;102113.97;5095362;27;45392;-79
2022/03/14 08:23:45;;;;;;;;;7.33;7.33;;;;;23.81;27.48;102093.47;5094506;27;45490;-79
2022/03/14 08:26:11;;;;;;;;;7.33;6.00;;;;;24.24;27.18;102154.31;5080079;27;45552;-79
2022/03/14 08:28:36;;;;;;;;;7.33;7.33;;;;;24.01;27.46;102120.31;5075047;28;45474;-79
2022/03/14 08:31:02;;;;;;;;;7.00;6.67;;;;;24.01;27.44;102119.41;5074757;28;45465;-80
2022/03/14 08:33:29;;;;;;;;;7.67;7.67;;;;;24.42;27.31;102148.56;5074872;27;45338;-80
2022/03/14 08:35:59;;;;;;;;;9.67;6.67;;;;;24.27;27.16;102122.59;5075108;28;45386;-80
2022/03/14 08:38:25;;;;;;;;;6.00;4.00;;;;;23.67;27.92;102131.63;5074813;28;45504;-80
2022/03/14 08:40:50;;;;;;;;;8.00;8.00;;;;;23.80;27.79;102133.22;5080023;27;46149;-80
2022/03/14 08:43:16;;;;;;;;;8.00;7.00;;;;;23.96;27.31;102120.38;5081325;27;45667;-80
2022/03/14 08:45:43;;;;;;;;;6.67;6.67;;;;;24.53;26.84;102158.34;5061026;28;45807;-80
2022/03/14 08:48:10;;;;;;;;;8.33;7.33;;;;;24.51;27.09;102123.09;5075094;28;45370;-81
2022/03/14 08:50:37;;;;;;;;;7.33;7.33;;;;;24.49;26.96;102119.53;5074422;27;45363;-80
2022/03/14 08:53:03;;;;;;;;;7.33;7.00;;;;;24.69;27.17;102186.16;5074673;28;45790;-80
2022/03/14 08:55:28;;;;;;;;;6.00;6.00;;;;;24.34;27.38;102136.06;5074713;27;45344;-80
2022/03/14 08:57:54;;;;;;;;;9.00;7.67;;;;;24.77;26.88;102186.94;5097644;27;45641;-80
2022/03/14 09:00:21;;;;;;;;;9.33;6.00;;;;;24.48;27.08;102105.06;5076712;28;47005;-80
2022/03/14 09:02:46;;;;;;;;;9.00;9.00;;;;;25.03;26.94;102181.00;5077905;28;45480;-80
2022/03/14 09:05:12;;;;;;;;;7.00;7.00;;;;;24.37;26.53;102090.78;5060877;28;45686;-80
2022/03/14 09:07:37;;;;;;;;;11.67;8.00;;;;;23.90;27.03;102054.53;5077719;27;45460;-79
2022/03/14 09:10:06;;;;;;;;;8.00;7.67;;;;;24.85;27.24;102201.25;5079750;27;48044;-80
2022/03/14 09:12:35;;;;;;;;;7.67;7.00;;;;;24.13;28.24;102208.69;5096772;27;45321;-80
2022/03/14 09:15:04;;;;;;;;;7.67;4.00;;;;;24.04;28.03;102127.50;5097774;27;45324;-80
2022/03/14 09:17:32;;;;;;;;;7.33;7.00;;;;;24.53;27.40;102159.25;5079601;27;45358;-81
2022/03/14 09:19:57;;;;;;;;;9.33;8.33;;;;;24.87;27.08;102141.53;5097227;27;46253;-81
2022/03/14 09:22:23;;;;;;;;;13.00;7.00;;;;;24.87;26.79;102139.69;5079472;27;45333;-80
2022/03/14 09:24:49;;;;;;;;;8.67;7.00;;;;;25.31;26.55;102191.34;5092482;27;45406;-79
2022/03/14 09:27:14;;;;;;;;;9.00;8.00;;;;;25.00;26.88;102195.53;5098196;27;45434;-79
2022/03/14 09:29:40;;;;;;;;;11.00;9.67;;;;;25.25;26.94;102186.03;5097903;27;45484;-80
2022/03/14 09:32:06;;;;;;;;;12.67;11.33;;;;;25.51;26.81;102177.38;5074289;27;45458;-80
2022/03/14 09:34:32;;;;;;;;;11.00;8.00;;;;;25.71;26.02;102157.03;5077374;28;45511;-80
2022/03/14 09:36:58;;;;;;;;;6.33;4.00;;;;;26.19;26.21;102216.72;5077339;28;45370;-81
2022/03/14 09:39:23;;;;;;;;;8.00;8.00;;;;;25.78;25.92;102146.00;5059302;28;48158;-81
2022/03/14 09:41:50;;;;;;;;;8.00;8.00;;;;;26.26;25.67;102212.00;5078943;27;45722;-81
2022/03/14 09:44:19;;;;;;;;;8.00;8.00;;;;;26.04;26.02;102217.94;5097431;27;45607;-81
2022/03/14 09:46:48;;;;;;;;;7.00;7.00;;;;;25.60;26.87;102219.78;5085903;27;45654;-78
2022/03/14 09:49:15;;;;;;;;;14.00;9.00;;;;;25.15;27.44;102204.34;5070489;27;47192;-80
2022/03/14 09:51:42;;;;;;;;;8.00;7.00;;;;;25.13;27.04;102179.00;5079353;27;45432;-80
2022/03/14 09:54:09;;;;;;;;;8.00;8.00;;;;;25.40;27.17;102207.50;5097026;27;45456;-80
2022/03/14 09:56:37;;;;;;;;;8.00;8.00;;;;;25.25;27.03;102157.03;5081287;27;45525;-78
2022/03/14 09:59:03;;;;;;;;;8.00;6.67;;;;;26.01;26.36;102229.78;5085811;27;45513;-80
2022/03/14 10:01:29;;;;;;;;;11.00;8.00;;;;;25.49;26.81;102173.81;5096833;27;45468;-80
2022/03/14 10:03:55;;;;;;;;;7.67;7.00;;;;;25.71;26.67;102176.06;5095986;27;45344;-80
2022/03/14 10:06:21;;;;;;;;;8.00;7.00;;;;;26.34;26.25;102205.47;5095414;27;45353;-80
2022/03/14 10:08:46;;;;;;;;;10.67;7.00;;;;;26.52;25.62;102187.78;5073828;28;47272;-81
2022/03/14 10:11:12;;;;;;;;;8.67;7.00;;;;;26.49;25.37;102182.41;5086792;27;45435;-79
2022/03/14 10:13:37;;;;;;;;;8.33;7.00;;;;;26.76;25.65;102192.69;5093681;27;45228;-78
2022/03/14 10:16:04;;;;;;;;;8.33;7.00;;;;;26.92;25.37;102198.59;5089241;27;45307;-81
2022/03/14 10:18:36;;;;;;;;;8.00;4.33;;;;;26.91;25.47;102195.00;5097482;27;45706;-81
2022/03/14 10:21:08;;;;;;;;;9.67;7.67;;;;;27.16;25.67;102216.13;5097095;27;45302;-81
2022/03/14 10:23:43;;;;;;;;;5.00;5.00;;;;;27.26;25.20;102231.28;5077459;27;45267;-81
2022/03/14 10:26:15;;;;;;;;;9.67;5.00;;;;;27.05;25.08;102202.78;5085318;27;45906;-79
2022/03/14 10:28:40;;;;;;;;;12.00;7.33;;;;;27.00;25.24;102204.75;5097098;27;45597;-80
2022/03/14 10:31:06;;;;;;;;;9.33;8.00;;;;;27.07;25.35;102189.13;5097114;27;45473;-78
2022/03/14 10:33:33;;;;;;;;;5.00;5.00;;;;;27.35;25.41;102202.91;5097323;27;45640;-79
2022/03/14 10:35:59;;;;;;;;;5.00;5.00;;;;;27.62;25.32;102225.72;5078859;27;45521;-80
2022/03/14 10:38:26;;;;;;;;;6.67;4.67;;;;;27.67;24.98;102222.91;5086977;27;45575;-81
2022/03/14 10:40:53;;;;;;;;;9.67;9.00;;;;;27.75;25.10;102218.13;5076106;28;45237;-80
2022/03/14 10:43:28;;;;;;;;;4.67;4.00;;;;;27.86;24.90;102236.84;5076644;28;45528;-78
2022/03/14 10:45:59;;;;;;;;;7.33;5.33;;;;;27.90;24.95;102241.28;5081450;27;45313;-80
2022/03/14 10:48:45;;;;;;;;;6.33;4.33;;;;;27.65;24.89;102243.84;5079244;27;45327;-78
2022/03/14 10:51:13;;;;;;;;;3.00;3.00;;;;;27.64;24.92;102234.78;5058286;28;45403;-79
2022/03/14 10:53:43;;;;;;;;;4.00;3.00;;;;;27.11;24.54;102188.13;5057902;28;45532;-81
2022/03/14 10:56:09;;;;;;;;;4.00;4.00;;;;;27.57;24.87;102230.44;5076509;28;45548;-79
2022/03/14 10:58:36;;;;;;;;;3.00;3.00;;;;;27.31;24.76;102220.25;5083419;27;46168;-78
2022/03/14 11:01:04;;;;;;;;;5.33;4.00;;;;;27.58;24.75;102232.25;5089565;27;45247;-78
2022/03/14 11:03:39;;;;;;;;;6.00;3.67;;;;;26.76;24.69;102146.38;5095070;27;45389;-78
2022/03/14 11:06:06;;;;;;;;;3.00;3.00;;;;;27.34;24.49;102198.34;5095201;27;45304;-81
2022/03/14 11:08:36;;;;;;;;;4.33;4.33;;;;;27.62;24.84;102219.41;5096635;27;45460;-79
2022/03/14 11:11:05;;;;;;;;;8.00;5.00;;;;;27.56;24.62;102194.09;5096415;27;45428;-79
2022/03/14 11:13:31;;;;;;;;;11.00;5.67;;;;;27.62;24.10;102192.13;5078250;27;45426;-79
2022/03/14 11:15:56;;;;;;;;;5.00;3.67;;;;;27.54;24.26;102211.47;5095793;27;45849;-78
2022/03/14 11:18:23;;;;;;;;;5.00;4.00;;;;;27.48;24.08;102147.13;5095526;27;45562;-78
2022/03/14 11:20:50;;;;;;;;;2.67;2.00;;;;;27.70;23.95;102163.69;5077133;27;45401;-78